Time;durP1;ratioP1;P1;durP2;ratioP2;P2;SDS_P1;SDS_P2;PMS_P1;PMS_P2;Temp;Humidity;BMP_temperature;BMP_pressure;BME280_temperature;BME280_humidity;BME280_pressure;Samples;Min_cycle;Max_cycle;Signal;HPM_P1;HPM_P2
2022/11/01 00:01:28;;;;;;;26.40;13.90;;;;;;;;;;5087788;28;20326;-56
2022/11/01 00:03:53;;;;;;;27.65;13.02;;;;;;;;;;5093468;28;20470;-56
2022/11/01 00:06:18;;;;;;;26.27;14.02;;;;;;;;;;5078619;28;20181;-56
2022/11/01 00:08:44;;;;;;;26.80;14.43;;;;;;;;;;5089734;28;20023;-56
2022/11/01 00:11:11;;;;;;;24.65;14.52;;;;;;;;;;5086056;28;20115;-56
2022/11/01 00:13:36;;;;;;;23.42;14.18;;;;;;;;;;5092652;28;20040;-56
2022/11/01 00:16:01;;;;;;;18.42;11.27;;;;;;;;;;5080635;28;20016;-57
2022/11/01 00:18:26;;;;;;;24.67;13.15;;;;;;;;;;5087256;28;20012;-56
2022/11/01 00:20:52;;;;;;;19.25;11.27;;;;;;;;;;5091354;28;20035;-56
2022/11/01 00:23:17;;;;;;;20.17;9.43;;;;;;;;;;5084211;28;20019;-56
2022/11/01 00:25:42;;;;;;;17.33;7.60;;;;;;;;;;5089418;28;20024;-56
2022/11/01 00:28:07;;;;;;;21.00;7.88;;;;;;;;;;5088158;28;20463;-56
2022/11/01 00:30:35;;;;;;;18.00;7.95;;;;;;;;;;5093335;28;20039;-56
2022/11/01 00:33:00;;;;;;;16.70;7.63;;;;;;;;;;5080858;28;20055;-57
2022/11/01 00:35:25;;;;;;;20.50;7.88;;;;;;;;;;5086207;28;20524;-56
2022/11/01 00:37:51;;;;;;;15.80;7.25;;;;;;;;;;5082463;28;20457;-55
2022/11/01 00:40:16;;;;;;;18.63;6.38;;;;;;;;;;5089754;28;20016;-57
2022/11/01 00:42:41;;;;;;;13.80;5.90;;;;;;;;;;5084022;28;20024;-56
2022/11/01 00:45:06;;;;;;;12.40;6.35;;;;;;;;;;5085932;28;20098;-56
2022/11/01 00:47:32;;;;;;;17.27;5.93;;;;;;;;;;5086259;28;20123;-56
2022/11/01 00:49:57;;;;;;;11.25;5.28;;;;;;;;;;5088358;28;20119;-56
2022/11/01 00:52:22;;;;;;;14.55;5.30;;;;;;;;;;5086454;28;20044;-56
2022/11/01 00:54:47;;;;;;;16.10;5.35;;;;;;;;;;5093521;28;20498;-57
2022/11/01 00:57:12;;;;;;;12.70;5.45;;;;;;;;;;5082361;28;20363;-56
2022/11/01 00:59:38;;;;;;;13.32;5.80;;;;;;;;;;5086848;28;20043;-55
2022/11/01 01:02:03;;;;;;;13.98;5.60;;;;;;;;;;5086151;28;20355;-58
2022/11/01 01:04:28;;;;;;;13.73;6.20;;;;;;;;;;5088196;28;20372;-57
2022/11/01 01:06:54;;;;;;;14.93;5.72;;;;;;;;;;5088336;28;20047;-56
2022/11/01 01:09:19;;;;;;;13.35;6.50;;;;;;;;;;5090830;28;20019;-56
2022/11/01 01:11:44;;;;;;;22.60;5.80;;;;;;;;;;5085962;28;20048;-57
2022/11/01 01:14:09;;;;;;;12.10;5.78;;;;;;;;;;5093489;28;20538;-57
2022/11/01 01:16:35;;;;;;;15.88;6.55;;;;;;;;;;5092336;28;20024;-57
2022/11/01 01:19:00;;;;;;;12.38;5.15;;;;;;;;;;5089944;28;20028;-57
2022/11/01 01:21:25;;;;;;;15.63;5.95;;;;;;;;;;5082724;28;20016;-57
2022/11/01 01:23:50;;;;;;;13.40;5.50;;;;;;;;;;5086393;28;20032;-57
2022/11/01 01:26:16;;;;;;;12.98;5.90;;;;;;;;;;5091806;28;20404;-57
2022/11/01 01:28:41;;;;;;;15.18;6.00;;;;;;;;;;5087050;28;20027;-57
2022/11/01 01:31:06;;;;;;;19.35;5.47;;;;;;;;;;5086495;28;20037;-57
2022/11/01 01:33:32;;;;;;;13.68;5.40;;;;;;;;;;5086771;28;20249;-58
2022/11/01 01:36:00;;;;;;;14.40;4.88;;;;;;;;;;5086048;28;20024;-58
2022/11/01 01:38:26;;;;;;;11.35;5.15;;;;;;;;;;5090141;28;20024;-57
2022/11/01 01:40:51;;;;;;;14.15;5.35;;;;;;;;;;5087236;28;20035;-57
2022/11/01 01:43:16;;;;;;;14.15;4.97;;;;;;;;;;5092956;28;20024;-56
2022/11/01 01:45:41;;;;;;;14.32;5.18;;;;;;;;;;5087503;28;20116;-58
2022/11/01 01:48:17;;;;;;;14.45;4.95;;;;;;;;;;5092876;28;20039;-59
2022/11/01 01:50:56;;;;;;;10.48;4.90;;;;;;;;;;5092954;28;20271;-58
2022/11/01 01:53:24;;;;;;;12.50;4.93;;;;;;;;;;5084122;28;20029;-58
2022/11/01 01:55:51;;;;;;;15.23;4.65;;;;;;;;;;5089171;28;20470;-57
2022/11/01 01:58:18;;;;;;;16.17;5.15;;;;;;;;;;5082750;28;20029;-56
2022/11/01 02:00:43;;;;;;;11.80;4.55;;;;;;;;;;5091651;28;20028;-57
2022/11/01 02:03:09;;;;;;;13.52;4.47;;;;;;;;;;5083452;28;20085;-58
2022/11/01 02:05:36;;;;;;;9.52;4.63;;;;;;;;;;5086505;28;20024;-58
2022/11/01 02:08:02;;;;;;;13.75;4.97;;;;;;;;;;5075975;28;20099;-58
2022/11/01 02:10:27;;;;;;;8.85;4.35;;;;;;;;;;5091317;28;20142;-58
2022/11/01 02:12:53;;;;;;;12.07;4.72;;;;;;;;;;5089490;28;20012;-58
2022/11/01 02:15:18;;;;;;;13.40;4.55;;;;;;;;;;5092109;28;20031;-57
2022/11/01 02:17:47;;;;;;;10.20;4.43;;;;;;;;;;5091282;28;20063;-57
2022/11/01 02:20:12;;;;;;;11.98;4.70;;;;;;;;;;5084494;28;20542;-57
2022/11/01 02:22:55;;;;;;;11.93;4.80;;;;;;;;;;5090660;28;20028;-58
2022/11/01 02:25:23;;;;;;;16.15;4.57;;;;;;;;;;5092737;28;20073;-58
2022/11/01 02:28:09;;;;;;;12.63;5.15;;;;;;;;;;5083329;28;20036;-57
2022/11/01 02:30:41;;;;;;;11.05;4.60;;;;;;;;;;5087694;28;20106;-57
2022/11/01 02:33:09;;;;;;;22.48;5.60;;;;;;;;;;5089215;28;20078;-57
2022/11/01 02:35:37;;;;;;;16.48;5.55;;;;;;;;;;5091832;28;20123;-57
2022/11/01 02:38:06;;;;;;;9.35;5.32;;;;;;;;;;5090851;28;20050;-57
2022/11/01 02:40:50;;;;;;;11.15;5.45;;;;;;;;;;5092920;28;20024;-58
2022/11/01 02:43:19;;;;;;;10.93;5.70;;;;;;;;;;5084268;28;20036;-57
2022/11/01 02:45:46;;;;;;;14.50;5.60;;;;;;;;;;5086982;28;20016;-56
2022/11/01 02:48:11;;;;;;;10.52;5.13;;;;;;;;;;5087490;28;20024;-58
2022/11/01 02:50:45;;;;;;;13.57;5.50;;;;;;;;;;5090955;28;20050;-57
2022/11/01 02:53:10;;;;;;;19.40;5.65;;;;;;;;;;5087474;28;20501;-57
2022/11/01 02:55:35;;;;;;;9.95;4.70;;;;;;;;;;5089016;28;20103;-58
2022/11/01 02:58:04;;;;;;;13.13;4.88;;;;;;;;;;5092699;28;20016;-58
2022/11/01 03:00:31;;;;;;;10.50;5.32;;;;;;;;;;5086808;28;20059;-58
2022/11/01 03:03:11;;;;;;;14.18;5.05;;;;;;;;;;5081707;28;20109;-57
2022/11/01 03:05:55;;;;;;;9.90;4.90;;;;;;;;;;5091237;28;20027;-58
2022/11/01 03:08:21;;;;;;;11.27;5.22;;;;;;;;;;5084394;28;20088;-58
2022/11/01 03:10:50;;;;;;;9.77;4.88;;;;;;;;;;5090613;28;20032;-58
2022/11/01 03:13:15;;;;;;;10.07;4.50;;;;;;;;;;5093579;28;20031;-57
2022/11/01 03:15:42;;;;;;;11.85;5.15;;;;;;;;;;5086852;28;20031;-57
2022/11/01 03:18:09;;;;;;;11.43;4.32;;;;;;;;;;5089873;28;20116;-57
2022/11/01 03:20:46;;;;;;;11.23;4.35;;;;;;;;;;5087832;28;20024;-57
2022/11/01 03:23:12;;;;;;;13.00;4.57;;;;;;;;;;5089927;28;20100;-59
2022/11/01 03:25:38;;;;;;;11.82;4.25;;;;;;;;;;5093609;28;20518;-56
2022/11/01 03:28:10;;;;;;;10.25;4.00;;;;;;;;;;5083095;28;20598;-56
2022/11/01 03:30:35;;;;;;;12.63;4.55;;;;;;;;;;5080462;28;20104;-57
2022/11/01 03:33:00;;;;;;;7.22;3.97;;;;;;;;;;5083300;28;20184;-57
2022/11/01 03:35:34;;;;;;;8.10;4.25;;;;;;;;;;5093937;28;20024;-57
2022/11/01 03:38:00;;;;;;;12.77;4.57;;;;;;;;;;5091299;28;20200;-57
2022/11/01 03:40:27;;;;;;;10.60;4.43;;;;;;;;;;5083140;28;20021;-57
2022/11/01 03:42:52;;;;;;;10.45;5.15;;;;;;;;;;5085442;28;20024;-57
2022/11/01 03:45:18;;;;;;;17.40;4.47;;;;;;;;;;5078445;28;20034;-57
2022/11/01 03:47:43;;;;;;;10.95;4.43;;;;;;;;;;5092467;28;20362;-57
2022/11/01 03:50:11;;;;;;;9.98;4.43;;;;;;;;;;5089245;28;20039;-57
2022/11/01 03:52:37;;;;;;;10.60;4.40;;;;;;;;;;5096940;28;20394;-57
2022/11/01 03:55:16;;;;;;;9.48;4.40;;;;;;;;;;5090856;28;20016;-57
2022/11/01 03:57:45;;;;;;;11.23;4.63;;;;;;;;;;5086829;28;20531;-57
2022/11/01 04:00:20;;;;;;;9.50;4.50;;;;;;;;;;5085028;28;20028;-57
2022/11/01 04:02:46;;;;;;;10.05;4.47;;;;;;;;;;5078875;28;20028;-57
2022/11/01 04:05:11;;;;;;;11.32;4.43;;;;;;;;;;5077252;28;20020;-57
2022/11/01 04:07:37;;;;;;;12.07;4.85;;;;;;;;;;5081439;28;20040;-56
2022/11/01 04:10:02;;;;;;;13.70;4.88;;;;;;;;;;5084320;28;20050;-57
2022/11/01 04:12:27;;;;;;;11.27;5.03;;;;;;;;;;5088877;28;20474;-56
2022/11/01 04:20:32;;;;;;;13.32;5.35;;;;;;;;;;5086707;28;20532;-56
2022/11/01 04:23:04;;;;;;;7.95;4.22;;;;;;;;;;5086356;28;20028;-57
2022/11/01 04:25:29;;;;;;;10.95;4.53;;;;;;;;;;5086066;28;20200;-57
2022/11/01 04:27:55;;;;;;;10.00;4.68;;;;;;;;;;5076807;28;20095;-57
2022/11/01 04:30:21;;;;;;;10.32;4.85;;;;;;;;;;5083673;28;20050;-57
2022/11/01 04:32:46;;;;;;;8.75;4.50;;;;;;;;;;5086974;28;20050;-57
2022/11/01 04:35:11;;;;;;;10.82;4.55;;;;;;;;;;5089080;28;20507;-57
2022/11/01 04:37:37;;;;;;;11.10;4.65;;;;;;;;;;5084082;28;20713;-57
2022/11/01 04:40:03;;;;;;;9.90;4.68;;;;;;;;;;5088527;28;20035;-57
2022/11/01 04:42:28;;;;;;;8.32;4.78;;;;;;;;;;5088717;28;20020;-57
2022/11/01 04:44:53;;;;;;;8.60;4.78;;;;;;;;;;5081104;28;20024;-57
2022/11/01 04:47:18;;;;;;;11.63;5.03;;;;;;;;;;5090768;28;20044;-57
2022/11/01 04:49:44;;;;;;;12.15;4.78;;;;;;;;;;5092446;28;20766;-57
2022/11/01 04:52:09;;;;;;;7.45;4.60;;;;;;;;;;5085793;28;20079;-57
2022/11/01 04:54:34;;;;;;;9.85;4.53;;;;;;;;;;5089342;28;20027;-57
2022/11/01 04:56:59;;;;;;;9.40;4.28;;;;;;;;;;5084833;28;20020;-56
2022/11/01 04:59:25;;;;;;;7.05;4.18;;;;;;;;;;5087465;28;20019;-57
2022/11/01 05:01:50;;;;;;;10.48;4.45;;;;;;;;;;5094341;28;20058;-57
2022/11/01 05:04:15;;;;;;;8.82;4.05;;;;;;;;;;5089288;28;20024;-57
2022/11/01 05:06:40;;;;;;;8.05;4.40;;;;;;;;;;5089434;28;20039;-57
2022/11/01 05:09:06;;;;;;;8.63;4.20;;;;;;;;;;5091734;28;20024;-57
2022/11/01 05:11:31;;;;;;;8.95;3.78;;;;;;;;;;5081708;28;20031;-56
2022/11/01 05:13:56;;;;;;;11.55;4.57;;;;;;;;;;5086320;28;20060;-57
2022/11/01 05:16:21;;;;;;;8.68;4.20;;;;;;;;;;5107373;28;20069;-57
2022/11/01 05:18:47;;;;;;;18.17;4.15;;;;;;;;;;5089100;28;20146;-57
2022/11/01 05:21:12;;;;;;;13.10;4.10;;;;;;;;;;5086346;28;20035;-58
2022/11/01 05:23:38;;;;;;;12.20;4.28;;;;;;;;;;5091397;28;20139;-57
2022/11/01 05:26:03;;;;;;;11.95;4.30;;;;;;;;;;5079082;28;20028;-57
2022/11/01 05:28:28;;;;;;;10.85;4.53;;;;;;;;;;5089351;28;20028;-57
2022/11/01 05:30:53;;;;;;;8.48;4.38;;;;;;;;;;5093658;28;20035;-57
2022/11/01 05:33:19;;;;;;;7.40;4.05;;;;;;;;;;5090341;28;20442;-57
2022/11/01 05:35:44;;;;;;;8.48;3.92;;;;;;;;;;5082862;28;20042;-57
2022/11/01 05:38:09;;;;;;;9.85;3.85;;;;;;;;;;5077653;28;20153;-57
2022/11/01 05:40:34;;;;;;;8.52;3.50;;;;;;;;;;5087018;28;20031;-57
2022/11/01 05:42:59;;;;;;;8.90;3.92;;;;;;;;;;5083663;28;20520;-57
2022/11/01 05:45:25;;;;;;;8.68;3.78;;;;;;;;;;5086831;28;20024;-57
2022/11/01 05:47:50;;;;;;;10.32;3.50;;;;;;;;;;5075889;28;20097;-57
2022/11/01 05:50:15;;;;;;;8.75;4.07;;;;;;;;;;5088234;28;20036;-57
2022/11/01 05:52:41;;;;;;;7.72;4.15;;;;;;;;;;5093850;28;20028;-56
2022/11/01 05:55:06;;;;;;;8.45;3.90;;;;;;;;;;5095454;28;20467;-57
2022/11/01 05:57:31;;;;;;;9.20;3.80;;;;;;;;;;5089438;28;20047;-57
2022/11/01 05:59:57;;;;;;;7.47;3.88;;;;;;;;;;5090189;28;20523;-57
2022/11/01 06:02:22;;;;;;;10.73;3.90;;;;;;;;;;5096066;28;20466;-56
2022/11/01 06:04:48;;;;;;;10.90;4.30;;;;;;;;;;5103577;27;20504;-57
2022/11/01 06:07:13;;;;;;;12.82;4.10;;;;;;;;;;5087254;28;20076;-57
2022/11/01 06:09:38;;;;;;;12.98;4.00;;;;;;;;;;5088378;28;20027;-57
2022/11/01 06:12:03;;;;;;;8.73;3.67;;;;;;;;;;5084256;28;20036;-57
2022/11/01 06:14:29;;;;;;;11.93;4.25;;;;;;;;;;5087942;28;20079;-57
2022/11/01 06:16:54;;;;;;;8.50;3.83;;;;;;;;;;5097036;28;20031;-57
2022/11/01 06:19:19;;;;;;;7.00;3.72;;;;;;;;;;5082894;28;20032;-57
2022/11/01 06:21:44;;;;;;;9.10;3.95;;;;;;;;;;5093653;28;20027;-56
2022/11/01 06:24:10;;;;;;;10.80;4.20;;;;;;;;;;5095655;28;20028;-56
2022/11/01 06:26:35;;;;;;;11.10;4.18;;;;;;;;;;5082666;28;20478;-56
2022/11/01 06:29:01;;;;;;;8.77;3.90;;;;;;;;;;5084055;28;20024;-57
2022/11/01 06:31:27;;;;;;;7.75;3.53;;;;;;;;;;5088324;28;20641;-56
2022/11/01 06:33:52;;;;;;;10.07;4.07;;;;;;;;;;5094451;28;20016;-57
2022/11/01 06:36:17;;;;;;;7.53;3.53;;;;;;;;;;5090371;28;20027;-57
2022/11/01 06:38:42;;;;;;;7.47;3.72;;;;;;;;;;5083686;28;20377;-57
2022/11/01 06:41:07;;;;;;;9.00;3.28;;;;;;;;;;5088225;28;20356;-57
2022/11/01 06:43:33;;;;;;;7.35;3.55;;;;;;;;;;5087576;28;20036;-57
2022/11/01 06:45:59;;;;;;;9.00;3.38;;;;;;;;;;5080696;28;20076;-56
2022/11/01 06:48:24;;;;;;;6.97;3.15;;;;;;;;;;5084825;28;20020;-57
2022/11/01 06:50:52;;;;;;;7.00;3.35;;;;;;;;;;5091239;28;20400;-57
2022/11/01 06:53:17;;;;;;;6.30;3.15;;;;;;;;;;5090803;28;20016;-57
2022/11/01 06:55:43;;;;;;;10.70;3.40;;;;;;;;;;5091436;28;20035;-57
2022/11/01 06:58:08;;;;;;;8.57;4.10;;;;;;;;;;5083803;28;20024;-57
2022/11/01 07:00:33;;;;;;;10.07;3.38;;;;;;;;;;5087856;28;20277;-57
2022/11/01 07:03:05;;;;;;;12.10;3.92;;;;;;;;;;5095360;28;20030;-57
2022/11/01 07:05:34;;;;;;;10.70;3.63;;;;;;;;;;5094243;28;20066;-55
2022/11/01 07:08:00;;;;;;;9.63;3.90;;;;;;;;;;5087519;28;20024;-57
2022/11/01 07:10:26;;;;;;;9.25;3.90;;;;;;;;;;5083045;28;20040;-57
2022/11/01 07:12:56;;;;;;;7.93;3.60;;;;;;;;;;5090623;28;20023;-57
2022/11/01 07:15:21;;;;;;;10.73;3.78;;;;;;;;;;5085147;28;20455;-57
2022/11/01 07:17:46;;;;;;;8.18;3.88;;;;;;;;;;5090059;28;20080;-57
2022/11/01 07:20:12;;;;;;;9.95;3.63;;;;;;;;;;5082217;28;20082;-57
2022/11/01 07:22:37;;;;;;;5.97;3.20;;;;;;;;;;5088309;28;20059;-56
2022/11/01 07:25:03;;;;;;;6.50;3.17;;;;;;;;;;5090439;28;20020;-57
2022/11/01 07:27:28;;;;;;;8.73;3.40;;;;;;;;;;5096942;28;20024;-57
2022/11/01 07:29:53;;;;;;;10.75;3.30;;;;;;;;;;5091437;28;20042;-57
2022/11/01 07:32:18;;;;;;;9.82;2.97;;;;;;;;;;5089445;28;20016;-57
2022/11/01 07:34:44;;;;;;;8.05;3.00;;;;;;;;;;5086895;28;20017;-57
2022/11/01 07:37:09;;;;;;;9.25;2.92;;;;;;;;;;5089903;28;20032;-57
2022/11/01 07:39:34;;;;;;;9.95;3.15;;;;;;;;;;5088155;28;20120;-55
2022/11/01 07:41:59;;;;;;;9.95;3.35;;;;;;;;;;5084181;28;20661;-57
2022/11/01 07:44:25;;;;;;;5.93;2.97;;;;;;;;;;5088465;28;20156;-57
2022/11/01 07:46:50;;;;;;;8.43;3.15;;;;;;;;;;5091845;28;20130;-57
2022/11/01 07:49:15;;;;;;;6.35;3.17;;;;;;;;;;5082839;28;20024;-56
2022/11/01 07:51:40;;;;;;;6.10;2.75;;;;;;;;;;5088520;28;20025;-55
2022/11/01 07:54:06;;;;;;;5.05;2.78;;;;;;;;;;5090753;28;20016;-55
2022/11/01 07:56:31;;;;;;;10.15;3.25;;;;;;;;;;5093819;28;20024;-55
2022/11/01 07:58:58;;;;;;;12.45;3.40;;;;;;;;;;5086561;28;20019;-56
2022/11/01 08:01:23;;;;;;;9.00;2.60;;;;;;;;;;5085207;28;20024;-56
2022/11/01 08:03:48;;;;;;;11.75;3.45;;;;;;;;;;5082863;28;20020;-56
2022/11/01 08:06:14;;;;;;;6.47;3.05;;;;;;;;;;5081338;28;20052;-56
2022/11/01 08:08:39;;;;;;;5.30;2.75;;;;;;;;;;5085270;28;20030;-56
2022/11/01 08:11:04;;;;;;;5.75;2.70;;;;;;;;;;5086393;28;20390;-56
2022/11/01 08:13:31;;;;;;;5.97;2.70;;;;;;;;;;5080128;28;20316;-56
2022/11/01 08:15:58;;;;;;;6.43;2.72;;;;;;;;;;5084252;28;20314;-57
2022/11/01 08:18:23;;;;;;;5.25;2.70;;;;;;;;;;5086136;28;20093;-56
2022/11/01 08:20:49;;;;;;;4.93;2.20;;;;;;;;;;5085658;28;20408;-55
2022/11/01 08:23:14;;;;;;;6.60;2.15;;;;;;;;;;5084179;28;20434;-55
2022/11/01 08:25:39;;;;;;;7.03;2.13;;;;;;;;;;5094497;28;20563;-55
2022/11/01 08:28:06;;;;;;;6.10;2.10;;;;;;;;;;5091808;28;20020;-56
2022/11/01 08:30:31;;;;;;;4.22;1.95;;;;;;;;;;5079509;28;20067;-54
2022/11/01 08:33:00;;;;;;;5.53;1.90;;;;;;;;;;5080986;28;20055;-55
2022/11/01 08:35:25;;;;;;;3.97;1.90;;;;;;;;;;5091572;28;20028;-56
2022/11/01 08:37:50;;;;;;;6.47;1.92;;;;;;;;;;5089018;28;20194;-56
2022/11/01 08:40:16;;;;;;;4.65;1.50;;;;;;;;;;5079585;28;20472;-55
2022/11/01 08:42:41;;;;;;;4.05;1.60;;;;;;;;;;5087227;28;20015;-56
2022/11/01 08:45:06;;;;;;;4.00;1.60;;;;;;;;;;5090163;28;20019;-54
2022/11/01 08:47:32;;;;;;;4.47;1.98;;;;;;;;;;5090044;28;20070;-54
2022/11/01 08:49:57;;;;;;;4.30;1.70;;;;;;;;;;5083500;28;20019;-55
2022/11/01 08:52:22;;;;;;;2.67;1.50;;;;;;;;;;5086740;28;20436;-55
2022/11/01 08:54:48;;;;;;;3.88;1.45;;;;;;;;;;5089267;28;20121;-55
2022/11/01 08:57:14;;;;;;;3.08;1.45;;;;;;;;;;5087178;28;20030;-55
2022/11/01 08:59:40;;;;;;;1.27;1.17;;;;;;;;;;5086274;28;20027;-55
2022/11/01 09:02:05;;;;;;;3.78;1.48;;;;;;;;;;5085173;28;20023;-56
2022/11/01 09:04:30;;;;;;;4.65;1.75;;;;;;;;;;5087141;28;20546;-55
2022/11/01 09:06:56;;;;;;;2.70;1.50;;;;;;;;;;5088380;28;20078;-55
2022/11/01 09:09:21;;;;;;;5.32;1.50;;;;;;;;;;5084023;28;20406;-54
2022/11/01 09:11:46;;;;;;;7.40;1.70;;;;;;;;;;5104758;28;20036;-55
2022/11/01 09:14:11;;;;;;;5.38;1.55;;;;;;;;;;5091922;28;20028;-54
2022/11/01 09:16:37;;;;;;;2.35;1.42;;;;;;;;;;5090556;28;20062;-54
2022/11/01 09:19:02;;;;;;;3.22;1.50;;;;;;;;;;5086259;28;20016;-56
2022/11/01 09:21:30;;;;;;;5.13;1.48;;;;;;;;;;5089017;28;20032;-56
2022/11/01 09:23:57;;;;;;;4.32;1.52;;;;;;;;;;5087479;28;20428;-55
2022/11/01 09:26:22;;;;;;;3.38;1.27;;;;;;;;;;5090752;28;20077;-57
2022/11/01 09:28:48;;;;;;;9.93;1.70;;;;;;;;;;5086960;28;20280;-57
2022/11/01 09:31:13;;;;;;;3.78;1.30;;;;;;;;;;5084445;28;20064;-58
2022/11/01 09:33:38;;;;;;;3.17;1.50;;;;;;;;;;5090639;28;20042;-55
2022/11/01 09:36:03;;;;;;;8.60;1.60;;;;;;;;;;5086440;28;20019;-55
2022/11/01 09:38:29;;;;;;;5.88;1.60;;;;;;;;;;5089309;28;20033;-57
2022/11/01 09:41:01;;;;;;;4.60;1.40;;;;;;;;;;5085528;28;20086;-57
2022/11/01 09:43:27;;;;;;;6.55;1.52;;;;;;;;;;5080015;28;20076;-57
2022/11/01 09:45:53;;;;;;;4.95;1.80;;;;;;;;;;5067514;28;20028;-57
2022/11/01 09:48:18;;;;;;;5.30;1.50;;;;;;;;;;5085077;28;20025;-56
2022/11/01 09:50:43;;;;;;;6.47;1.50;;;;;;;;;;5090426;28;20554;-57
2022/11/01 09:53:13;;;;;;;5.03;1.52;;;;;;;;;;5072005;28;20043;-57
2022/11/01 09:55:40;;;;;;;3.45;1.50;;;;;;;;;;5070185;28;20509;-57
2022/11/01 09:58:15;;;;;;;3.75;1.45;;;;;;;;;;5090611;28;20299;-57
2022/11/01 10:00:42;;;;;;;5.40;1.60;;;;;;;;;;5089761;28;20023;-57
2022/11/01 10:03:15;;;;;;;6.43;1.75;;;;;;;;;;5090422;28;20072;-57
2022/11/01 10:06:01;;;;;;;5.00;1.30;;;;;;;;;;5093396;28;20027;-57
2022/11/01 10:08:29;;;;;;;5.40;1.60;;;;;;;;;;5087591;28;20394;-57
2022/11/01 10:10:55;;;;;;;4.00;1.50;;;;;;;;;;5084794;28;20497;-56
2022/11/01 10:13:32;;;;;;;3.40;1.40;;;;;;;;;;5088044;28;20016;-62
2022/11/01 10:16:12;;;;;;;4.60;1.30;;;;;;;;;;5103264;27;20107;-58
2022/11/01 10:19:01;;;;;;;5.35;1.48;;;;;;;;;;5089809;28;20110;-56
2022/11/01 10:21:26;;;;;;;4.10;1.40;;;;;;;;;;5078161;28;20464;-56
2022/11/01 10:23:52;;;;;;;6.85;1.70;;;;;;;;;;5088081;28;20502;-57
2022/11/01 10:26:22;;;;;;;4.40;1.40;;;;;;;;;;5092280;28;20103;-56
2022/11/01 10:28:56;;;;;;;5.13;1.75;;;;;;;;;;5085351;28;20022;-57
2022/11/01 10:31:22;;;;;;;6.30;1.70;;;;;;;;;;5087118;28;20097;-56
2022/11/01 10:34:04;;;;;;;4.60;1.50;;;;;;;;;;5085248;28;20021;-57
2022/11/01 10:36:33;;;;;;;4.80;1.67;;;;;;;;;;5082248;28;20446;-57
2022/11/01 10:39:14;;;;;;;5.78;1.40;;;;;;;;;;5092679;28;20512;-56
2022/11/01 10:41:41;;;;;;;5.05;1.52;;;;;;;;;;5088655;28;20016;-56
2022/11/01 10:44:16;;;;;;;5.65;1.63;;;;;;;;;;5101253;28;20027;-57
2022/11/01 10:46:44;;;;;;;3.65;1.17;;;;;;;;;;5086037;28;20042;-57
2022/11/01 10:49:20;;;;;;;6.50;1.52;;;;;;;;;;5079642;28;20013;-56
2022/11/01 10:51:46;;;;;;;4.68;1.42;;;;;;;;;;5085516;28;20035;-56
2022/11/01 10:54:16;;;;;;;5.70;1.60;;;;;;;;;;5074163;28;20180;-54
2022/11/01 10:56:43;;;;;;;4.07;1.63;;;;;;;;;;5061989;28;20032;-55
2022/11/01 10:59:17;;;;;;;6.03;1.40;;;;;;;;;;5076649;28;20078;-56
2022/11/01 11:01:42;;;;;;;4.90;1.58;;;;;;;;;;5076559;28;20035;-55
2022/11/01 11:04:09;;;;;;;6.05;1.70;;;;;;;;;;5076267;28;20016;-55
2022/11/01 11:06:35;;;;;;;3.22;1.75;;;;;;;;;;5067923;28;20071;-56
2022/11/01 11:09:00;;;;;;;5.07;1.45;;;;;;;;;;5071879;28;20458;-55
2022/11/01 11:11:29;;;;;;;1.98;1.08;;;;;;;;;;5071559;28;20402;-55
2022/11/01 11:13:55;;;;;;;6.50;1.88;;;;;;;;;;5078960;28;20012;-56
2022/11/01 11:16:29;;;;;;;5.82;1.67;;;;;;;;;;5078670;28;20036;-55
2022/11/01 11:19:02;;;;;;;5.88;1.40;;;;;;;;;;5076464;28;20718;-56
2022/11/01 11:21:31;;;;;;;3.92;1.52;;;;;;;;;;5073066;28;20505;-56
2022/11/01 11:23:56;;;;;;;9.75;1.88;;;;;;;;;;5078592;28;20024;-56
2022/11/01 11:26:21;;;;;;;5.35;1.70;;;;;;;;;;5074107;28;20517;-55
2022/11/01 11:28:48;;;;;;;7.70;1.88;;;;;;;;;;5077521;28;20110;-56
2022/11/01 11:31:14;;;;;;;7.68;1.60;;;;;;;;;;5072168;28;20036;-55
2022/11/01 11:33:45;;;;;;;10.68;2.38;;;;;;;;;;5076415;28;20422;-56
2022/11/01 11:36:11;;;;;;;8.18;1.88;;;;;;;;;;5078075;28;20487;-55
2022/11/01 11:38:43;;;;;;;10.10;1.90;;;;;;;;;;5078979;28;20366;-55
2022/11/01 11:41:09;;;;;;;6.47;1.65;;;;;;;;;;5071349;28;20111;-55
2022/11/01 11:43:36;;;;;;;10.38;1.98;;;;;;;;;;5071877;28;20482;-55
2022/11/01 11:46:05;;;;;;;11.98;2.00;;;;;;;;;;5069983;28;20035;-56
2022/11/01 11:48:31;;;;;;;9.05;2.10;;;;;;;;;;5079041;28;20028;-53
2022/11/01 11:50:59;;;;;;;8.13;1.98;;;;;;;;;;5070846;28;20042;-57
2022/11/01 11:53:26;;;;;;;4.88;1.52;;;;;;;;;;5073548;28;20043;-57
2022/11/01 11:55:51;;;;;;;8.35;1.52;;;;;;;;;;5077842;28;20024;-54
2022/11/01 11:58:18;;;;;;;11.23;1.90;;;;;;;;;;5072918;28;20020;-57
2022/11/01 12:00:45;;;;;;;8.27;1.67;;;;;;;;;;5071431;28;20074;-57
2022/11/01 12:03:13;;;;;;;5.60;1.60;;;;;;;;;;5077435;28;20043;-56
2022/11/01 12:05:39;;;;;;;5.50;1.63;;;;;;;;;;5071267;28;20028;-56
2022/11/01 12:08:05;;;;;;;9.63;1.95;;;;;;;;;;5075494;28;20031;-57
2022/11/01 12:10:31;;;;;;;7.60;1.73;;;;;;;;;;5074062;28;20059;-56
2022/11/01 12:12:56;;;;;;;8.18;1.80;;;;;;;;;;5080705;28;20052;-56
2022/11/01 12:15:26;;;;;;;5.25;1.70;;;;;;;;;;5072180;28;20416;-56
2022/11/01 12:17:51;;;;;;;8.43;1.77;;;;;;;;;;5074814;28;20482;-55
2022/11/01 12:20:17;;;;;;;5.70;1.60;;;;;;;;;;5087566;28;20032;-56
2022/11/01 12:22:47;;;;;;;7.20;2.10;;;;;;;;;;5085464;28;20035;-56
2022/11/01 12:25:13;;;;;;;12.88;2.08;;;;;;;;;;5084085;28;20114;-57
2022/11/01 12:27:39;;;;;;;7.43;1.70;;;;;;;;;;5080177;28;20036;-56
2022/11/01 12:30:07;;;;;;;10.98;2.08;;;;;;;;;;5085845;28;20045;-57
2022/11/01 12:32:46;;;;;;;10.35;2.15;;;;;;;;;;5096515;28;20420;-57
2022/11/01 12:35:21;;;;;;;9.93;2.13;;;;;;;;;;5081495;28;20016;-56
2022/11/01 12:37:54;;;;;;;8.77;2.03;;;;;;;;;;5091840;28;20119;-56
2022/11/01 12:40:20;;;;;;;9.10;1.80;;;;;;;;;;5081831;28;20043;-56
2022/11/01 12:42:50;;;;;;;10.77;2.50;;;;;;;;;;5088330;28;20031;-56
2022/11/01 12:45:21;;;;;;;9.80;2.07;;;;;;;;;;5082360;28;20035;-56
2022/11/01 12:47:47;;;;;;;8.43;1.80;;;;;;;;;;5083593;28;20028;-56
2022/11/01 12:50:20;;;;;;;8.55;2.05;;;;;;;;;;5094407;28;20032;-56
2022/11/01 12:52:48;;;;;;;9.32;1.80;;;;;;;;;;5070552;28;20050;-55
2022/11/01 12:55:19;;;;;;;9.43;2.70;;;;;;;;;;5075001;28;20130;-56
2022/11/01 12:57:44;;;;;;;7.28;2.08;;;;;;;;;;5074198;28;20024;-56
2022/11/01 13:00:16;;;;;;;9.13;2.00;;;;;;;;;;5072750;28;20051;-55
2022/11/01 13:03:00;;;;;;;9.35;1.98;;;;;;;;;;5083076;28;20053;-56
2022/11/01 13:05:41;;;;;;;11.73;2.10;;;;;;;;;;5082507;28;20028;-56
2022/11/01 13:08:15;;;;;;;7.30;2.05;;;;;;;;;;5085832;28;20053;-55
2022/11/01 13:10:45;;;;;;;9.43;1.80;;;;;;;;;;5089297;28;20031;-55
2022/11/01 13:13:10;;;;;;;8.95;1.85;;;;;;;;;;5091274;28;20134;-54
2022/11/01 13:15:46;;;;;;;8.25;2.67;;;;;;;;;;5084666;28;20035;-56
2022/11/01 13:18:32;;;;;;;5.90;1.92;;;;;;;;;;5088384;28;20066;-56
2022/11/01 13:21:16;;;;;;;12.00;2.10;;;;;;;;;;5086963;28;20032;-60
2022/11/01 13:23:44;;;;;;;9.20;1.83;;;;;;;;;;5081522;28;20026;-56
2022/11/01 13:26:21;;;;;;;11.52;1.90;;;;;;;;;;5092081;28;20135;-56
2022/11/01 13:28:46;;;;;;;11.02;2.40;;;;;;;;;;5084784;28;20030;-55
2022/11/01 13:31:12;;;;;;;9.15;1.80;;;;;;;;;;5086750;28;20032;-56
2022/11/01 13:34:03;;;;;;;11.43;1.95;;;;;;;;;;5088987;28;20042;-54
2022/11/01 13:36:35;;;;;;;15.40;2.20;;;;;;;;;;5079108;28;20185;-56
2022/11/01 13:39:05;;;;;;;11.65;2.00;;;;;;;;;;5084576;28;20146;-56
2022/11/01 13:41:36;;;;;;;6.43;1.92;;;;;;;;;;5083142;28;20036;-54
2022/11/01 13:44:21;;;;;;;10.18;2.55;;;;;;;;;;5088867;28;20051;-55
2022/11/01 13:46:52;;;;;;;6.10;1.48;;;;;;;;;;5090457;28;20055;-55
2022/11/01 13:49:35;;;;;;;12.98;2.10;;;;;;;;;;5083253;28;20027;-55
2022/11/01 13:52:19;;;;;;;11.45;1.83;;;;;;;;;;5082442;28;20093;-55
2022/11/01 13:55:03;;;;;;;8.00;1.65;;;;;;;;;;5077396;28;20020;-57
2022/11/01 13:57:29;;;;;;;7.32;1.80;;;;;;;;;;5082897;28;20016;-57
2022/11/01 13:59:55;;;;;;;11.10;2.08;;;;;;;;;;5087909;28;20023;-57
2022/11/01 14:02:26;;;;;;;7.57;2.28;;;;;;;;;;5075099;28;20132;-57
2022/11/01 14:04:57;;;;;;;6.80;1.88;;;;;;;;;;5071576;28;20579;-54
2022/11/01 14:07:26;;;;;;;12.55;2.30;;;;;;;;;;5084057;28;20072;-55
2022/11/01 14:09:54;;;;;;;11.30;2.15;;;;;;;;;;5071414;28;20096;-56
2022/11/01 14:12:32;;;;;;;12.65;2.10;;;;;;;;;;5083909;28;20032;-57
2022/11/01 14:15:16;;;;;;;8.07;2.05;;;;;;;;;;5084707;28;20464;-55
2022/11/01 14:17:51;;;;;;;10.55;2.65;;;;;;;;;;5075767;28;20737;-57
2022/11/01 14:20:19;;;;;;;8.07;1.80;;;;;;;;;;5081880;28;20037;-55
2022/11/01 14:22:44;;;;;;;10.70;2.35;;;;;;;;;;5080460;28;20109;-57
2022/11/01 14:25:10;;;;;;;8.05;1.88;;;;;;;;;;5086955;28;20478;-57
2022/11/01 14:27:36;;;;;;;7.07;1.73;;;;;;;;;;5090884;28;20027;-55
2022/11/01 14:30:10;;;;;;;10.52;2.00;;;;;;;;;;5086039;28;20028;-54
2022/11/01 14:32:36;;;;;;;11.23;2.08;;;;;;;;;;5087515;28;20039;-55
2022/11/01 14:35:04;;;;;;;9.50;2.13;;;;;;;;;;5085537;28;20024;-55
2022/11/01 14:37:33;;;;;;;10.23;2.03;;;;;;;;;;5087522;28;20518;-56
2022/11/01 14:40:00;;;;;;;12.65;2.15;;;;;;;;;;5081672;28;20387;-55
2022/11/01 14:42:28;;;;;;;12.77;2.60;;;;;;;;;;5091529;28;20035;-55
2022/11/01 14:44:53;;;;;;;16.38;2.20;;;;;;;;;;5100450;27;20779;-54